createdAt,value
2018-07-11T00:00:17.236Z,17.63
2018-07-11T00:02:45.911Z,18.10
2018-07-11T00:05:14.520Z,18.57
2018-07-11T00:07:43.150Z,18.80
2018-07-11T00:10:11.743Z,17.97
2018-07-11T00:12:40.379Z,18.77
2018-07-11T00:15:09.030Z,18.13
2018-07-11T00:17:37.674Z,18.97
2018-07-11T00:20:06.285Z,17.70
2018-07-11T00:22:34.914Z,17.43
2018-07-11T00:25:03.579Z,15.80
2018-07-11T00:30:06.267Z,16.13
2018-07-11T00:32:34.928Z,16.57
2018-07-11T00:35:03.581Z,16.33
2018-07-11T00:37:32.267Z,16.23
2018-07-11T00:40:00.964Z,16.87
2018-07-11T00:42:29.625Z,17.40
2018-07-11T00:44:58.281Z,16.90
2018-07-11T00:47:26.948Z,17.40
2018-07-11T00:49:55.621Z,17.13
2018-07-11T00:52:24.339Z,16.53
2018-07-11T00:54:53.001Z,17.57
2018-07-11T00:57:21.667Z,17.00
2018-07-11T00:59:50.418Z,17.23
2018-07-11T01:02:19.071Z,18.43
2018-07-11T01:04:47.732Z,16.67
2018-07-11T01:07:16.392Z,17.93
2018-07-11T01:09:46.149Z,16.20
2018-07-11T01:12:14.930Z,17.10
2018-07-11T01:14:43.580Z,17.60
2018-07-11T01:17:17.522Z,16.77
2018-07-11T01:19:47.383Z,16.40
2018-07-11T01:22:16.134Z,16.43
2018-07-11T01:24:44.754Z,16.53
2018-07-11T01:27:14.030Z,16.73
2018-07-11T01:29:42.658Z,17.27
2018-07-11T01:32:11.271Z,17.83
2018-07-11T01:34:39.884Z,17.93
2018-07-11T01:37:08.514Z,18.07
2018-07-11T01:39:37.233Z,17.93
2018-07-11T01:42:05.843Z,19.17
2018-07-11T01:44:34.559Z,17.87
2018-07-11T01:47:03.216Z,17.10
2018-07-11T01:49:31.904Z,16.67
2018-07-11T01:52:05.816Z,14.90
2018-07-11T01:54:34.579Z,16.20
2018-07-11T01:57:03.278Z,15.83
2018-07-11T01:59:33.950Z,16.27
2018-07-11T02:02:03.161Z,15.10
2018-07-11T02:04:32.439Z,15.70
2018-07-11T02:07:01.193Z,16.37
2018-07-11T02:09:30.428Z,16.17
2018-07-11T02:11:59.102Z,14.60
2018-07-11T02:14:27.922Z,15.17
2018-07-11T02:16:56.637Z,15.27
2018-07-11T02:19:25.282Z,16.13
2018-07-11T02:21:53.961Z,15.40
2018-07-11T02:24:23.861Z,15.37
2018-07-11T02:26:52.704Z,16.10
2018-07-11T02:29:21.432Z,14.53
2018-07-11T02:31:50.244Z,14.73
2018-07-11T02:34:23.142Z,15.30
2018-07-11T02:36:51.815Z,16.23
2018-07-11T02:39:20.442Z,15.10
2018-07-11T02:41:49.129Z,18.10
2018-07-11T02:44:17.783Z,18.07
2018-07-11T02:46:51.738Z,17.23
2018-07-11T02:49:20.408Z,18.73
2018-07-11T02:51:49.086Z,20.20
2018-07-11T02:54:18.147Z,21.93
2018-07-11T02:56:46.871Z,20.13
2018-07-11T02:59:15.569Z,22.67
2018-07-11T03:01:44.289Z,21.27
2018-07-11T03:04:13.012Z,23.30
2018-07-11T03:06:41.706Z,21.97
2018-07-11T03:09:10.353Z,25.03
2018-07-11T03:11:39.075Z,29.77
2018-07-11T03:14:07.682Z,28.23
2018-07-11T03:16:36.326Z,29.47
2018-07-11T03:19:05.015Z,33.30
2018-07-11T03:21:33.792Z,30.93
2018-07-11T03:24:02.443Z,31.53
2018-07-11T03:26:31.083Z,35.67
2018-07-11T03:28:59.752Z,36.37
2018-07-11T03:31:28.400Z,35.53
2018-07-11T03:33:57.021Z,37.97
2018-07-11T03:36:25.718Z,35.07
2018-07-11T03:38:54.716Z,34.73
2018-07-11T03:41:23.414Z,33.40
2018-07-11T03:43:52.105Z,33.33
2018-07-11T03:46:33.136Z,36.23
2018-07-11T03:49:01.797Z,35.60
2018-07-11T03:51:30.686Z,33.70
2018-07-11T03:53:59.329Z,37.07
2018-07-11T03:56:27.986Z,34.23
2018-07-11T03:58:56.614Z,32.57
2018-07-11T04:01:25.260Z,32.83
2018-07-11T04:03:54.063Z,32.20
2018-07-11T04:06:22.709Z,29.57
2018-07-11T04:08:51.316Z,32.83
2018-07-11T04:11:19.987Z,31.47
2018-07-11T04:13:48.644Z,33.93
2018-07-11T04:16:17.291Z,32.40
2018-07-11T04:18:45.916Z,31.03
2018-07-11T04:21:36.697Z,33.47
2018-07-11T04:24:05.360Z,34.67
2018-07-11T04:26:34.024Z,36.30
2018-07-11T04:29:02.641Z,36.67
2018-07-11T04:31:31.308Z,36.97
2018-07-11T04:33:59.979Z,37.00
2018-07-11T04:36:28.636Z,40.57
2018-07-11T04:38:57.307Z,40.10
2018-07-11T04:41:25.961Z,41.47
2018-07-11T04:43:54.633Z,45.57
2018-07-11T04:46:23.331Z,43.27
2018-07-11T04:48:52.090Z,45.73
2018-07-11T04:51:20.780Z,45.57
2018-07-11T04:53:49.481Z,44.17
2018-07-11T04:56:18.186Z,40.93
2018-07-11T04:58:46.832Z,41.17
2018-07-11T05:01:15.471Z,39.87
2018-07-11T05:03:44.139Z,39.60
2018-07-11T05:06:12.820Z,39.10
2018-07-11T05:08:41.425Z,38.60
2018-07-11T05:11:10.124Z,37.87
2018-07-11T05:13:38.758Z,38.67
2018-07-11T05:16:07.405Z,36.83
2018-07-11T05:18:36.082Z,37.83
2018-07-11T05:21:04.718Z,36.23
2018-07-11T05:23:33.345Z,35.67
2018-07-11T05:26:01.957Z,33.27
2018-07-11T05:28:30.616Z,33.20
2018-07-11T05:30:59.247Z,30.53
2018-07-11T05:33:27.997Z,31.47
2018-07-11T05:35:56.646Z,31.43
2018-07-11T05:38:25.261Z,29.83
2018-07-11T05:40:53.884Z,30.00
2018-07-11T05:43:22.477Z,31.93
2018-07-11T05:45:51.113Z,32.50
2018-07-11T05:48:20.295Z,36.30
2018-07-11T05:50:48.937Z,31.63
2018-07-11T05:53:17.587Z,34.13
2018-07-11T05:55:46.248Z,32.67
2018-07-11T05:58:14.960Z,33.87
2018-07-11T06:00:43.592Z,33.43
2018-07-11T06:03:12.230Z,31.50
2018-07-11T06:05:40.903Z,31.10
2018-07-11T06:08:09.532Z,32.37
2018-07-11T06:10:38.188Z,31.27
2018-07-11T06:13:07.010Z,32.37
2018-07-11T06:15:35.689Z,31.57
2018-07-11T06:18:04.330Z,31.90
2018-07-11T06:20:32.950Z,36.23
2018-07-11T06:23:01.554Z,33.20
2018-07-11T06:25:30.132Z,34.50
2018-07-11T06:27:58.828Z,32.67
2018-07-11T06:30:27.440Z,34.13
2018-07-11T06:32:56.068Z,35.37
2018-07-11T06:35:24.698Z,33.60
2018-07-11T06:37:53.300Z,32.50
2018-07-11T06:40:22.027Z,31.17
2018-07-11T06:42:50.636Z,29.07
2018-07-11T06:45:19.252Z,30.63
2018-07-11T06:47:47.971Z,31.43
2018-07-11T06:50:16.600Z,30.00
2018-07-11T06:52:45.269Z,27.33
2018-07-11T06:55:13.873Z,26.80
2018-07-11T06:57:42.531Z,26.20
2018-07-11T07:00:11.168Z,23.57
2018-07-11T07:02:39.791Z,24.73
2018-07-11T07:05:08.435Z,25.93
2018-07-11T07:07:37.089Z,23.70
2018-07-11T07:10:05.752Z,21.60
2018-07-11T07:12:34.387Z,22.80
2018-07-11T07:15:03.000Z,20.63
2018-07-11T07:17:32.057Z,20.50
2018-07-11T07:20:01.114Z,22.07
2018-07-11T07:22:30.289Z,20.80
2018-07-11T07:24:59.245Z,20.90
2018-07-11T07:27:27.959Z,20.53
2018-07-11T07:29:56.852Z,20.27
2018-07-11T07:32:25.928Z,21.47
2018-07-11T07:34:54.746Z,18.80
2018-07-11T07:37:23.620Z,21.53
2018-07-11T07:39:52.460Z,20.43
2018-07-11T07:42:21.227Z,21.33
2018-07-11T07:44:50.202Z,20.40
2018-07-11T07:47:24.412Z,20.20
2018-07-11T07:49:53.131Z,21.63
2018-07-11T07:52:22.627Z,23.40
2018-07-11T07:54:51.716Z,24.83
2018-07-11T07:57:20.504Z,21.07
2018-07-11T07:59:49.707Z,19.33
2018-07-11T08:02:18.998Z,19.60
2018-07-11T08:04:48.312Z,19.40
2018-07-11T08:07:17.016Z,20.97
2018-07-11T08:09:45.695Z,19.93
2018-07-11T08:12:14.499Z,20.20
2018-07-11T08:14:43.236Z,19.87
2018-07-11T08:17:11.935Z,19.47
2018-07-11T08:19:40.591Z,20.33
2018-07-11T08:22:14.613Z,17.63
2018-07-11T08:24:48.720Z,18.47
2018-07-11T08:29:31.141Z,18.83
2018-07-11T08:32:05.131Z,18.53
2018-07-11T08:36:42.644Z,18.20
2018-07-11T08:39:30.549Z,17.00
2018-07-11T08:42:04.701Z,17.33
2018-07-11T08:46:46.029Z,16.87
2018-07-11T08:49:20.031Z,15.97
2018-07-11T08:51:54.234Z,15.40
2018-07-11T08:54:30.090Z,15.53
2018-07-11T08:57:03.017Z,15.47
2018-07-11T08:59:37.184Z,15.93
2018-07-11T09:04:14.370Z,17.17
2018-07-11T09:08:52.291Z,15.83
2018-07-11T09:11:34.284Z,16.00
2018-07-11T09:14:06.224Z,17.53
2018-07-11T09:16:42.392Z,15.93
2018-07-11T09:19:16.762Z,17.23
2018-07-11T09:21:56.344Z,20.57
2018-07-11T09:24:30.585Z,21.53
2018-07-11T09:26:59.276Z,22.03
2018-07-11T09:29:28.049Z,24.33
2018-07-11T09:31:56.736Z,24.20
2018-07-11T09:34:25.347Z,23.67
2018-07-11T09:36:54.343Z,22.93
2018-07-11T09:39:23.215Z,23.33
2018-07-11T09:41:51.876Z,22.53
2018-07-11T09:44:20.599Z,23.53
2018-07-11T09:46:49.517Z,21.97
2018-07-11T09:49:18.206Z,23.77
2018-07-11T09:51:47.060Z,24.87
2018-07-11T09:54:16.075Z,24.43
2018-07-11T09:56:44.769Z,24.50
2018-07-11T09:59:14.275Z,23.93
2018-07-11T10:01:42.960Z,24.73
2018-07-11T10:04:12.672Z,22.50
2018-07-11T10:06:41.496Z,23.10
2018-07-11T10:09:10.364Z,23.43
2018-07-11T10:11:39.156Z,24.60
2018-07-11T10:14:07.976Z,22.53
2018-07-11T10:16:36.642Z,23.20
2018-07-11T10:19:05.939Z,22.97
2018-07-11T10:21:35.352Z,22.90
2018-07-11T10:24:04.149Z,22.20
2018-07-11T10:26:32.936Z,23.90
2018-07-11T10:29:01.654Z,23.43
2018-07-11T10:31:30.520Z,22.33
2018-07-11T10:33:59.444Z,23.10
2018-07-11T10:36:28.048Z,22.77
2018-07-11T10:38:56.805Z,23.27
2018-07-11T10:41:25.516Z,23.03
2018-07-11T10:43:54.415Z,21.27
2018-07-11T10:46:23.184Z,20.87
2018-07-11T10:48:51.968Z,21.27
2018-07-11T10:51:20.760Z,20.23
2018-07-11T10:53:49.552Z,20.77
2018-07-11T10:56:18.348Z,18.90
2018-07-11T10:58:47.167Z,17.37
2018-07-11T11:01:15.969Z,17.97
2018-07-11T11:03:44.548Z,18.37
2018-07-11T11:06:13.341Z,19.97
2018-07-11T11:08:41.995Z,18.57
2018-07-11T11:11:10.700Z,18.70
2018-07-11T11:13:39.588Z,18.60
2018-07-11T11:16:08.484Z,18.83
2018-07-11T11:18:37.276Z,18.90
2018-07-11T11:21:06.067Z,18.67
2018-07-11T11:23:34.879Z,18.13
2018-07-11T11:26:03.582Z,19.73
2018-07-11T11:28:32.373Z,19.00
2018-07-11T11:31:01.040Z,19.47
2018-07-11T11:33:29.736Z,20.17
2018-07-11T11:35:58.620Z,19.87
2018-07-11T11:38:27.516Z,18.93
2018-07-11T11:40:56.209Z,18.07
2018-07-11T11:43:25.005Z,19.33
2018-07-11T11:45:53.631Z,19.17
2018-07-11T11:48:22.514Z,18.80
2018-07-11T11:50:51.405Z,19.30
2018-07-11T11:53:20.076Z,19.83
2018-07-11T11:55:48.788Z,18.33
2018-07-11T11:58:17.580Z,18.83
2018-07-11T12:00:46.449Z,17.00
2018-07-11T12:03:15.268Z,16.97
2018-07-11T12:05:43.958Z,16.67
2018-07-11T12:08:12.718Z,18.07
2018-07-11T12:10:41.337Z,17.90
2018-07-11T12:13:10.131Z,19.27
2018-07-11T12:15:39.000Z,18.87
2018-07-11T12:18:07.716Z,17.63
2018-07-11T12:20:36.405Z,17.40
2018-07-11T12:23:05.172Z,16.03
2018-07-11T12:25:33.964Z,15.97
2018-07-11T12:28:02.655Z,16.07
2018-07-11T12:30:31.275Z,14.97
2018-07-11T12:33:00.037Z,14.13
2018-07-11T12:35:28.731Z,14.13
2018-07-11T12:37:57.549Z,16.02
2018-07-11T12:40:26.413Z,15.13
2018-07-11T12:42:55.157Z,14.30
2018-07-11T12:45:23.791Z,14.45
2018-07-11T12:47:57.732Z,14.18
2018-07-11T12:50:26.405Z,14.30
2018-07-11T12:52:55.062Z,15.30
2018-07-11T12:55:23.704Z,15.40
2018-07-11T12:57:52.339Z,17.30
2018-07-11T13:00:21.000Z,15.83
2018-07-11T13:02:49.635Z,15.00
2018-07-11T13:05:18.275Z,15.13
2018-07-11T13:07:46.905Z,15.50
2018-07-11T13:10:15.504Z,15.13
2018-07-11T13:12:44.149Z,15.00
2018-07-11T13:15:12.775Z,16.23
2018-07-11T13:17:41.386Z,14.87
2018-07-11T13:20:10.004Z,15.47
2018-07-11T13:22:38.606Z,14.83
2018-07-11T13:25:07.222Z,15.50
2018-07-11T13:27:35.865Z,15.50
2018-07-11T13:30:04.891Z,16.23
2018-07-11T13:32:33.512Z,16.23
2018-07-11T13:35:02.148Z,13.93
2018-07-11T13:37:30.773Z,15.00
2018-07-11T13:39:59.376Z,16.40
2018-07-11T13:42:28.010Z,15.33
2018-07-11T13:44:56.643Z,14.53
2018-07-11T13:47:27.492Z,14.63
2018-07-11T13:49:56.634Z,15.50
2018-07-11T13:52:25.260Z,14.50
2018-07-11T13:54:53.908Z,13.87
2018-07-11T13:57:22.856Z,14.90
2018-07-11T13:59:51.693Z,14.50
2018-07-11T14:02:20.539Z,14.53
2018-07-11T14:04:49.310Z,15.57
2018-07-11T14:07:17.983Z,15.23
2018-07-11T14:09:46.663Z,14.53
2018-07-11T14:12:15.348Z,13.90
2018-07-11T14:14:44.000Z,15.70
2018-07-11T14:17:12.651Z,16.03
2018-07-11T14:19:41.237Z,15.07
2018-07-11T14:22:10.117Z,16.73
2018-07-11T14:24:38.911Z,16.03
2018-07-11T14:27:07.600Z,15.63
2018-07-11T14:29:36.411Z,17.23
2018-07-11T14:32:05.491Z,16.23
2018-07-11T14:34:34.268Z,15.93
2018-07-11T14:37:03.158Z,14.93
2018-07-11T14:39:31.870Z,15.10
2018-07-11T14:42:00.739Z,14.47
2018-07-11T14:44:29.943Z,15.17
2018-07-11T14:46:59.320Z,15.63
2018-07-11T14:49:28.044Z,15.20
2018-07-11T14:51:56.856Z,16.03
2018-07-11T14:54:25.624Z,15.23
2018-07-11T14:56:54.286Z,14.60
2018-07-11T14:59:23.234Z,14.73
2018-07-11T15:01:51.896Z,11.07
2018-07-11T15:04:20.688Z,10.73
2018-07-11T15:06:49.408Z,10.90
2018-07-11T15:09:18.574Z,11.53
2018-07-11T15:11:47.095Z,11.53
2018-07-11T15:14:16.023Z,11.27
2018-07-11T15:16:44.860Z,11.60
2018-07-11T15:19:13.651Z,11.93
2018-07-11T15:21:42.473Z,12.07
2018-07-11T15:24:11.265Z,12.00
2018-07-11T15:26:39.874Z,13.57
2018-07-11T15:29:08.421Z,13.37
2018-07-11T15:31:37.540Z,14.10
2018-07-11T15:34:06.520Z,14.00
2018-07-11T15:36:35.330Z,14.10
2018-07-11T15:39:05.044Z,13.50
2018-07-11T15:41:33.595Z,13.57
2018-07-11T15:44:02.172Z,13.70
2018-07-11T15:46:30.755Z,13.67
2018-07-11T15:48:59.984Z,14.17
2018-07-11T15:51:28.805Z,13.47
2018-07-11T15:53:57.698Z,13.47
2018-07-11T15:56:26.593Z,13.33
2018-07-11T15:58:59.583Z,14.17
2018-07-11T16:01:28.348Z,13.30
2018-07-11T16:03:57.056Z,13.53
2018-07-11T16:06:25.729Z,13.43
2018-07-11T16:08:54.524Z,12.67
2018-07-11T16:11:23.239Z,10.30
2018-07-11T16:13:51.930Z,9.07
2018-07-11T16:16:20.729Z,7.60
2018-07-11T16:18:49.484Z,6.37
2018-07-11T16:21:18.276Z,6.37
2018-07-11T16:23:47.172Z,6.10
2018-07-11T16:26:15.864Z,6.00
2018-07-11T16:28:44.583Z,6.57
2018-07-11T16:31:13.377Z,5.40
2018-07-11T16:33:42.169Z,7.87
2018-07-11T16:36:10.961Z,8.80
2018-07-11T16:38:39.754Z,9.60
2018-07-11T16:41:08.467Z,10.23
2018-07-11T16:43:37.216Z,10.47
2018-07-11T16:46:05.929Z,11.50
2018-07-11T16:48:34.822Z,12.47
2018-07-11T16:51:03.514Z,14.67
2018-07-11T16:53:32.307Z,14.90
2018-07-11T16:56:01.076Z,16.87
2018-07-11T16:58:30.711Z,16.97
2018-07-11T17:01:00.187Z,15.57
2018-07-11T17:03:30.620Z,15.93
2018-07-11T17:06:01.160Z,18.80
2018-07-11T17:08:31.539Z,19.57
2018-07-11T17:11:08.495Z,19.30
2018-07-11T17:13:37.251Z,14.50
2018-07-11T17:16:06.485Z,14.07
2018-07-11T17:18:40.228Z,17.13
2018-07-11T17:21:10.248Z,16.53
2018-07-11T17:23:43.095Z,16.33
2018-07-11T17:26:11.872Z,17.70
2018-07-11T17:28:41.372Z,17.30
2018-07-11T17:31:10.292Z,16.40
2018-07-11T17:33:39.210Z,13.73
2018-07-11T17:36:08.013Z,11.47
2018-07-11T17:38:36.792Z,12.60
2018-07-11T17:41:05.669Z,13.63
2018-07-11T17:43:38.355Z,13.83
2018-07-11T17:46:07.934Z,15.50
2018-07-11T17:48:44.943Z,15.63
2018-07-11T17:51:22.146Z,16.80
2018-07-11T17:53:54.263Z,16.40
2018-07-11T17:56:23.474Z,15.37
2018-07-11T17:58:54.277Z,15.00
2018-07-11T18:01:43.945Z,16.53
2018-07-11T18:04:14.851Z,18.37
2018-07-11T18:06:49.060Z,19.20
2018-07-11T18:09:18.266Z,17.37
2018-07-11T18:11:53.299Z,17.20
2018-07-11T18:14:27.618Z,16.77
2018-07-11T18:16:59.655Z,15.47
2018-07-11T18:19:37.249Z,16.93
2018-07-11T18:22:11.895Z,16.40
2018-07-11T18:25:13.232Z,16.63
2018-07-11T18:27:46.842Z,16.90
2018-07-11T18:30:22.256Z,17.73
2018-07-11T18:32:56.556Z,19.87
2018-07-11T18:35:30.665Z,18.20
2018-07-11T18:38:35.942Z,19.30
2018-07-11T18:41:05.020Z,23.83
2018-07-11T18:43:39.155Z,26.73
2018-07-11T18:46:11.837Z,28.33
2018-07-11T18:48:45.108Z,32.73
2018-07-11T18:53:24.093Z,31.70
2018-07-11T18:55:55.648Z,27.37
2018-07-11T18:58:27.179Z,25.03
2018-07-11T19:01:00.401Z,24.37
2018-07-11T19:03:30.861Z,26.77
2018-07-11T19:08:08.151Z,26.13
2018-07-11T19:10:42.164Z,26.13
2018-07-11T19:13:17.069Z,28.17
2018-07-11T19:15:46.639Z,30.00
2018-07-11T19:18:17.119Z,25.77
2018-07-11T19:20:56.240Z,24.23
2018-07-11T19:23:29.219Z,26.47
2018-07-11T19:26:07.548Z,25.37
2018-07-11T19:28:41.856Z,24.00
2018-07-11T19:31:15.895Z,24.80
2018-07-11T19:33:46.608Z,24.33
2018-07-11T19:37:20.073Z,24.10
2018-07-11T19:39:58.080Z,25.40
2018-07-11T19:42:34.880Z,25.40
2018-07-11T19:45:09.573Z,23.93
2018-07-11T19:48:41.572Z,25.63
2018-07-11T19:51:14.707Z,26.50
2018-07-11T19:53:53.951Z,27.53
2018-07-11T19:56:54.688Z,29.50
2018-07-11T19:59:23.304Z,32.90
2018-07-11T20:01:51.856Z,28.80
2018-07-11T20:04:20.451Z,28.73
2018-07-11T20:06:49.068Z,29.23
2018-07-11T20:09:17.929Z,29.57
2018-07-11T20:11:46.708Z,27.47
2018-07-11T20:14:15.384Z,29.10
2018-07-11T20:16:44.259Z,29.43
2018-07-11T20:19:13.079Z,32.27
2018-07-11T20:21:41.864Z,31.87
2018-07-11T20:24:11.095Z,30.07
2018-07-11T20:26:39.963Z,28.13
2018-07-11T20:29:08.756Z,30.63
2018-07-11T20:31:37.556Z,30.87
2018-07-11T20:34:06.444Z,31.50
2018-07-11T20:36:35.241Z,31.50
2018-07-11T20:39:04.436Z,30.87
2018-07-11T20:41:33.227Z,30.43
2018-07-11T20:44:02.024Z,32.80
2018-07-11T20:46:31.012Z,32.60
2018-07-11T20:48:59.738Z,32.30
2018-07-11T20:51:28.839Z,36.40
2018-07-11T20:53:57.733Z,40.33
2018-07-11T20:56:26.631Z,35.43
2018-07-11T20:59:00.949Z,33.90
2018-07-11T21:01:35.181Z,33.43
2018-07-11T21:04:09.764Z,32.47
2018-07-11T21:07:03.111Z,33.20
2018-07-11T21:09:37.328Z,29.33
2018-07-11T21:12:11.370Z,28.70
2018-07-11T21:14:50.498Z,30.77
2018-07-11T21:17:24.687Z,28.13
2018-07-11T21:19:53.375Z,28.97
2018-07-11T21:22:22.172Z,28.13
2018-07-11T21:24:50.868Z,28.93
2018-07-11T21:27:19.657Z,28.47
2018-07-11T21:29:48.350Z,26.60
2018-07-11T21:32:17.166Z,27.10
2018-07-11T21:34:46.059Z,26.80
2018-07-11T21:37:14.759Z,28.37
2018-07-11T21:39:43.434Z,28.57
2018-07-11T21:42:12.308Z,29.07
2018-07-11T21:44:41.100Z,27.63
2018-07-11T21:47:10.010Z,31.07
2018-07-11T21:49:38.797Z,29.07
2018-07-11T21:52:07.580Z,30.63
2018-07-11T21:54:36.277Z,29.57
2018-07-11T21:57:05.300Z,30.53
2018-07-11T21:59:34.190Z,30.30
2018-07-11T22:02:03.088Z,26.20
2018-07-11T22:04:31.775Z,27.43
2018-07-11T22:07:00.590Z,28.07
2018-07-11T22:09:29.344Z,28.30
2018-07-11T22:11:58.124Z,29.30
2018-07-11T22:14:26.928Z,27.90
2018-07-11T22:16:56.036Z,33.53
2018-07-11T22:19:29.137Z,32.80
2018-07-11T22:21:57.214Z,33.23
2018-07-11T22:24:28.569Z,32.93
2018-07-11T22:26:56.643Z,32.90
2018-07-11T22:29:24.652Z,32.90
2018-07-11T22:31:52.614Z,33.37
2018-07-11T22:34:20.568Z,37.10
2018-07-11T22:36:48.563Z,37.63
2018-07-11T22:39:16.501Z,36.60
2018-07-11T22:41:44.436Z,35.93
2018-07-11T22:44:12.377Z,32.37
2018-07-11T22:46:40.418Z,36.67
2018-07-11T22:49:08.381Z,39.10
2018-07-11T22:51:36.293Z,40.17
2018-07-11T22:54:04.211Z,40.97
2018-07-11T22:56:32.165Z,40.33
2018-07-11T22:59:00.090Z,44.67
2018-07-11T23:01:28.083Z,42.23
2018-07-11T23:03:55.995Z,42.30
2018-07-11T23:06:23.920Z,43.73
2018-07-11T23:08:51.913Z,42.23
2018-07-11T23:11:19.827Z,42.87
2018-07-11T23:13:47.801Z,42.27
2018-07-11T23:16:15.738Z,41.87
2018-07-11T23:18:43.689Z,43.27
2018-07-11T23:21:11.637Z,42.73
2018-07-11T23:23:39.573Z,45.10
2018-07-11T23:26:07.814Z,44.20
2018-07-11T23:28:35.729Z,48.93
2018-07-11T23:31:03.694Z,43.87
2018-07-11T23:33:31.649Z,41.20
2018-07-11T23:35:59.590Z,43.47
2018-07-11T23:38:27.564Z,44.90
2018-07-11T23:40:55.531Z,48.43
2018-07-11T23:43:23.548Z,46.83
2018-07-11T23:45:51.516Z,45.00
2018-07-11T23:48:19.469Z,49.07
2018-07-11T23:50:47.511Z,45.20
2018-07-11T23:53:15.433Z,45.43
2018-07-11T23:55:43.381Z,47.00
2018-07-11T23:58:11.317Z,42.87
